Time;durP1;ratioP1;P1;durP2;ratioP2;P2;SDS_P1;SDS_P2;PMS_P1;PMS_P2;Temp;Humidity;BMP_temperature;BMP_pressure;BME280_temperature;BME280_humidity;BME280_pressure;Samples;Min_cycle;Max_cycle;Signal;HPM_P1;HPM_P2
2021/08/31 00:06:25;;;;;;;6.73;6.03;;;;;;;14.72;100.00;99760.97;20904604;28;20310;-66
2021/08/31 00:16:26;;;;;;;7.97;6.63;;;;;;;14.76;100.00;99783.88;20883346;28;21020;-67
2021/08/31 00:26:26;;;;;;;10.20;7.80;;;;;;;14.75;100.00;99763.38;20884181;28;20461;-66
2021/08/31 00:36:27;;;;;;;9.33;7.83;;;;;;;14.76;100.00;99777.66;20887901;28;20547;-67
2021/08/31 00:46:27;;;;;;;9.33;7.87;;;;;;;14.73;100.00;99792.19;20893659;28;20465;-66
2021/08/31 00:56:28;;;;;;;8.23;7.07;;;;;;;14.78;100.00;99752.34;20894213;28;20242;-66
2021/08/31 01:06:28;;;;;;;9.03;7.57;;;;;;;14.86;100.00;99758.84;20865980;28;20776;-67
2021/08/31 01:16:29;;;;;;;8.67;7.77;;;;;;;14.84;100.00;99742.06;20899367;28;20685;-65
2021/08/31 01:26:30;;;;;;;8.23;7.23;;;;;;;14.78;100.00;99740.75;20857957;28;20314;-68
2021/08/31 01:36:30;;;;;;;9.13;8.23;;;;;;;14.76;100.00;99738.22;20880114;28;20223;-68
2021/08/31 01:46:31;;;;;;;7.93;6.90;;;;;;;14.78;100.00;99757.72;20875274;28;20276;-68
2021/08/31 01:56:31;;;;;;;7.70;6.90;;;;;;;14.86;100.00;99772.28;20895494;28;20250;-66
2021/08/31 02:06:32;;;;;;;7.50;6.57;;;;;;;14.88;100.00;99730.00;20860710;28;20231;-68
2021/08/31 02:16:33;;;;;;;7.60;6.80;;;;;;;14.89;100.00;99758.59;20887710;28;20314;-66
2021/08/31 02:26:33;;;;;;;6.57;5.97;;;;;;;14.89;100.00;99758.59;20891846;28;20692;-67
2021/08/31 02:36:34;;;;;;;6.40;5.80;;;;;;;14.83;100.00;99753.78;20905057;28;20222;-64
2021/08/31 02:46:34;;;;;;;5.47;5.03;;;;;;;14.83;100.00;99745.72;20904536;28;20990;-65
2021/08/31 02:56:35;;;;;;;5.60;5.10;;;;;;;14.78;100.00;99746.13;20903896;28;20227;-67
2021/08/31 03:06:35;;;;;;;5.80;5.27;;;;;;;14.72;100.00;99736.81;20893463;28;20273;-64
2021/08/31 03:16:36;;;;;;;5.43;5.03;;;;;;;14.53;100.00;99726.00;20873652;28;20223;-65
2021/08/31 03:26:37;;;;;;;4.70;4.30;;;;;;;14.31;100.00;99710.09;20900913;28;20247;-65
2021/08/31 03:36:37;;;;;;;5.50;5.00;;;;;;;14.11;100.00;99729.81;20824025;28;20231;-68
2021/08/31 03:46:39;;;;;;;5.63;5.10;;;;;;;13.91;100.00;99740.44;20811022;28;20220;-65
2021/08/31 03:56:39;;;;;;;6.30;5.70;;;;;;;13.98;100.00;99719.31;20788709;28;20251;-67
2021/08/31 04:06:40;;;;;;;6.70;6.00;;;;;;;13.99;100.00;99755.91;20726670;28;20603;-67
2021/08/31 04:16:42;;;;;;;6.80;6.20;;;;;;;14.23;100.00;99780.56;20740213;28;20221;-68
2021/08/31 04:26:43;;;;;;;6.57;5.97;;;;;;;14.47;100.00;99791.00;20717219;28;20221;-66
2021/08/31 04:36:44;;;;;;;6.47;5.87;;;;;;;14.47;100.00;99768.69;20738273;28;20232;-65
2021/08/31 04:46:57;;;;;;;5.07;4.63;;;;;;;14.64;100.00;99752.75;20719018;28;20236;-69
2021/08/31 04:56:58;;;;;;;4.43;4.13;;;;;;;14.78;100.00;99752.34;20732782;28;20231;-67
2021/08/31 05:06:58;;;;;;;3.37;3.17;;;;;;;14.98;100.00;99736.25;20805166;28;20733;-68
2021/08/31 05:16:59;;;;;;;4.20;3.90;;;;;;;15.08;100.00;99737.97;20824227;28;20537;-63
2021/08/31 05:26:59;;;;;;;3.73;3.50;;;;;;;15.70;100.00;99754.59;20836935;28;20748;-68
2021/08/31 05:37:00;;;;;;;2.83;2.73;;;;;;;16.19;100.00;99761.53;20873870;28;20232;-65
2021/08/31 05:47:01;;;;;;;2.87;2.77;;;;;;;16.78;100.00;99744.97;20895350;28;20691;-64
2021/08/31 05:57:06;;;;;;;2.63;2.53;;;;;;;17.66;100.00;99742.38;20871957;28;20604;-65
2021/08/31 06:07:08;;;;;;;2.20;2.10;;;;;;;17.52;100.00;99741.91;20893723;28;20226;-63
2021/08/31 06:17:09;;;;;;;2.13;2.03;;;;;;;18.25;100.00;99750.50;20837059;28;20534;-65
2021/08/31 06:27:09;;;;;;;2.03;1.93;;;;;;;18.27;100.00;99764.69;20872274;28;20220;-62
2021/08/31 06:37:10;;;;;;;2.07;1.97;;;;;;;19.03;100.00;99750.28;20879965;28;20577;-66
2021/08/31 06:47:11;;;;;;;2.30;2.20;;;;;;;20.12;100.00;99756.19;20863691;28;20618;-67
2021/08/31 06:57:11;;;;;;;2.10;1.93;;;;;;;19.47;100.00;99747.28;20869491;28;20332;-64
2021/08/31 07:07:13;;;;;;;2.60;2.50;;;;;;;18.69;100.00;99758.50;20870939;28;20585;-66
2021/08/31 07:17:15;;;;;;;1.90;1.80;;;;;;;19.37;100.00;99745.59;20890973;28;20351;-67
2021/08/31 07:27:16;;;;;;;3.10;3.00;;;;;;;19.95;100.00;99757.22;20867217;28;20228;-62
2021/08/31 07:37:17;;;;;;;2.73;2.63;;;;;;;19.55;100.00;99756.28;20890221;28;20227;-65
2021/08/31 07:47:17;;;;;;;3.90;3.60;;;;;;;18.92;100.00;99775.78;20870020;28;20230;-65
2021/08/31 07:57:18;;;;;;;4.10;3.83;;;;;;;18.69;100.00;99780.13;20885903;28;20231;-69
2021/08/31 08:07:26;;;;;;;3.70;3.40;;;;;;;18.71;100.00;99772.69;20880041;28;20570;-66
2021/08/31 08:17:27;;;;;;;3.47;3.17;;;;;;;19.16;100.00;99782.25;20874999;28;20248;-69
2021/08/31 08:27:34;;;;;;;3.90;3.60;;;;;;;20.51;100.00;99785.25;20898492;28;20638;-65
2021/08/31 08:37:35;;;;;;;2.80;2.60;;;;;;;20.65;100.00;99782.59;20882913;28;20238;-65
2021/08/31 08:47:36;;;;;;;3.03;2.83;;;;;;;20.95;100.00;99751.09;20883383;28;20277;-64
2021/08/31 08:57:37;;;;;;;2.80;2.60;;;;;;;21.59;100.00;99770.69;20859221;28;20262;-67
2021/08/31 09:07:40;;;;;;;3.40;3.10;;;;;;;21.91;100.00;99781.25;20816462;28;20309;-68
2021/08/31 09:18:03;;;;;;;2.53;2.37;;;;;;;22.07;100.00;99793.03;20794828;28;20331;-68
2021/08/31 09:38:16;;;;;;;2.80;2.60;;;;;;;22.80;100.00;99797.66;20589321;27;8306529;-67
2021/08/31 09:48:19;;;;;;;2.30;2.20;;;;;;;22.88;100.00;99822.03;20873145;28;20345;-67
2021/08/31 09:58:24;;;;;;;2.90;2.30;;;;;;;22.72;90.71;99835.78;20872299;28;20215;-70
2021/08/31 10:08:28;;;;;;;2.10;1.90;;;;;;;22.29;100.00;99816.56;20864365;28;20231;-66
2021/08/31 10:18:29;;;;;;;2.13;1.93;;;;;;;22.06;100.00;99804.94;20877803;28;20307;-66
2021/08/31 10:28:30;;;;;;;2.40;2.20;;;;;;;21.74;100.00;99800.59;20856457;28;20231;-66
2021/08/31 10:38:44;;;;;;;2.20;1.90;;;;;;;22.03;98.35;99811.56;20924421;28;20223;-68
2021/08/31 10:48:59;;;;;;;2.20;1.50;;;;;;;23.11;90.05;99820.00;20865532;28;20234;-68
2021/08/31 10:59:03;;;;;;;1.60;1.50;;;;;;;22.54;100.00;99820.72;20903019;28;20609;-68
2021/08/31 11:09:08;;;;;;;1.83;1.73;;;;;;;22.37;100.00;99818.34;20883961;28;20695;-68
2021/08/31 11:19:29;;;;;;;1.73;1.70;;;;;;;22.46;88.86;99809.09;20896544;28;20211;-68
2021/08/31 11:29:29;;;;;;;1.50;1.50;;;;;;;22.67;100.00;99816.50;20887721;28;20237;-68
2021/08/31 11:39:30;;;;;;;1.60;1.60;;;;;;;22.99;100.00;99792.44;20888510;28;20269;-67
2021/08/31 11:49:32;;;;;;;1.70;1.60;;;;;;;22.91;99.10;99775.41;20896295;28;20462;-67
2021/08/31 11:59:35;;;;;;;1.30;1.30;;;;;;;23.20;97.56;99778.00;20877991;28;20266;-66
2021/08/31 12:09:37;;;;;;;1.40;1.40;;;;;;;23.70;91.79;99784.41;20879211;28;20327;-67
2021/08/31 12:19:38;;;;;;;2.40;1.20;;;;;;;23.50;91.12;99789.69;20853374;28;20269;-68
2021/08/31 12:29:51;;;;;;;1.30;1.30;;;;;;;23.20;86.67;99802.50;20875331;28;20231;-70
2021/08/31 12:40:11;;;;;;;1.27;1.27;;;;;;;23.66;79.66;99789.41;20874855;28;20638;-68
2021/08/31 12:50:11;;;;;;;1.30;1.20;;;;;;;23.10;92.26;99801.13;20892009;28;20585;-70
2021/08/31 13:00:23;;;;;;;0.90;0.90;;;;;;;23.40;83.86;99796.47;20878897;28;20211;-69
2021/08/31 13:10:23;;;;;;;1.40;1.30;;;;;;;22.52;94.21;99800.16;20884126;28;20527;-69
2021/08/31 13:20:31;;;;;;;2.20;1.80;;;;;;;22.24;96.26;99813.56;20885764;28;20226;-68
2021/08/31 13:30:31;;;;;;;1.60;1.50;;;;;;;22.10;100.00;99817.94;20874273;28;20249;-68
2021/08/31 13:40:32;;;;;;;1.53;1.53;;;;;;;22.29;100.00;99805.69;20890461;28;20231;-68
2021/08/31 13:50:32;;;;;;;1.37;1.37;;;;;;;21.69;100.00;99803.88;20867408;28;20700;-68
2021/08/31 14:00:35;;;;;;;1.60;1.50;;;;;;;21.27;100.00;99796.19;20864939;28;20967;-68
2021/08/31 14:10:36;;;;;;;1.60;1.50;;;;;;;20.89;100.00;99811.47;20867265;28;20317;-68
2021/08/31 14:20:37;;;;;;;2.37;1.90;;;;;;;21.74;100.00;99806.88;20887369;28;20249;-68
2021/08/31 14:30:37;;;;;;;1.37;1.30;;;;;;;21.24;100.00;99799.28;20870485;28;20655;-68
2021/08/31 14:40:38;;;;;;;2.00;1.90;;;;;;;20.44;100.00;99814.88;20894712;28;20457;-66
2021/08/31 14:50:39;;;;;;;2.10;2.00;;;;;;;19.97;100.00;99836.47;20897103;28;20583;-67
2021/08/31 15:00:39;;;;;;;2.87;2.30;;;;;;;20.05;100.00;99823.75;20886446;28;20219;-66
2021/08/31 15:10:40;;;;;;;3.37;2.50;;;;;;;19.71;100.00;99832.06;20912765;28;20692;-65
2021/08/31 15:20:41;;;;;;;6.03;2.37;;;;;;;19.38;100.00;99873.63;20909714;28;20473;-65
2021/08/31 15:30:41;;;;;;;2.73;2.53;;;;;;;18.79;100.00;99842.16;20884142;28;20770;-66
2021/08/31 15:40:42;;;;;;;2.70;1.30;;;;;;;17.74;100.00;99843.16;20891942;28;20225;-66
2021/08/31 15:50:47;;;;;;;0.90;0.90;;;;;;;17.18;100.00;99851.50;20876009;28;20227;-68
2021/08/31 16:00:48;;;;;;;0.60;0.60;;;;;;;16.87;100.00;99870.72;20872596;28;20561;-68
2021/08/31 16:10:48;;;;;;;0.70;0.70;;;;;;;16.77;100.00;99869.91;20899854;28;20306;-64
2021/08/31 16:20:49;;;;;;;1.00;1.00;;;;;;;16.46;100.00;99900.75;20722749;28;20221;-66
2021/08/31 16:30:49;;;;;;;0.50;0.50;;;;;;;16.20;100.00;99881.69;20776668;28;20318;-68
2021/08/31 16:40:50;;;;;;;0.77;0.60;;;;;;;16.13;100.00;99886.81;20807683;28;20231;-70
2021/08/31 16:50:52;;;;;;;0.53;0.50;;;;;;;16.18;100.00;99894.47;20828707;28;20227;-65
2021/08/31 17:00:53;;;;;;;0.50;0.50;;;;;;;15.73;100.00;99910.34;20800863;28;20223;-66
2021/08/31 17:10:54;;;;;;;1.30;0.83;;;;;;;15.30;100.00;99930.38;20829136;28;20774;-66
2021/08/31 17:20:54;;;;;;;0.50;0.50;;;;;;;15.16;100.00;99936.13;20874091;28;20223;-68
2021/08/31 17:30:55;;;;;;;0.93;0.70;;;;;;;14.95;100.00;99952.34;20818763;28;20474;-67
2021/08/31 17:40:56;;;;;;;2.47;0.83;;;;;;;14.78;100.00;99967.25;20828263;28;20310;-64
2021/08/31 17:51:03;;;;;;;1.37;1.10;;;;;;;14.70;100.00;99968.91;20810970;28;20468;-67
2021/08/31 18:01:05;;;;;;;1.73;1.57;;;;;;;14.71;100.00;99976.81;20839125;28;20338;-67
2021/08/31 18:11:05;;;;;;;0.80;0.80;;;;;;;14.75;100.00;99994.34;20816942;28;20278;-64
2021/08/31 18:21:06;;;;;;;0.80;0.80;;;;;;;14.77;100.00;99996.91;20841617;28;20230;-63
2021/08/31 18:31:06;;;;;;;1.17;1.07;;;;;;;14.74;100.00;100008.78;20830001;28;20297;-64
2021/08/31 18:41:09;;;;;;;0.87;0.87;;;;;;;14.72;100.00;100018.81;20827842;28;20235;-65
2021/08/31 18:51:09;;;;;;;1.00;1.00;;;;;;;14.67;100.00;100012.97;20834803;28;21148;-64
2021/08/31 19:10:44;;;;;;;0.80;0.80;;;;;;;14.52;100.00;100016.97;20820627;27;20651;-63
2021/08/31 19:20:44;;;;;;;0.85;0.85;;;;;;;14.47;100.00;100021.06;20797884;28;20219;-67
2021/08/31 19:30:45;;;;;;;1.10;1.00;;;;;;;14.36;100.00;100024.63;20788876;28;124218;-64
2021/08/31 19:41:04;;;;;;;0.80;0.80;;;;;;;14.35;100.00;100028.28;20795913;27;20563;-66
2021/08/31 20:11:03;;;;;;;0.90;0.90;;;;;;;14.35;100.00;100055.97;20970460;27;20597;-63
2021/08/31 20:21:04;;;;;;;1.00;1.00;;;;;;;14.31;100.00;100053.66;20856965;28;20223;-68
2021/08/31 20:31:05;;;;;;;1.20;1.10;;;;;;;14.27;100.00;100068.31;20886324;28;20223;-66
2021/08/31 20:41:07;;;;;;;1.00;1.00;;;;;;;14.19;100.00;100062.75;20878167;28;20394;-65
2021/08/31 20:51:08;;;;;;;1.20;1.20;;;;;;;14.23;100.00;100086.53;20875702;28;20246;-66
2021/08/31 21:01:09;;;;;;;2.97;1.47;;;;;;;14.21;100.00;100106.41;20893095;28;20226;-66
2021/08/31 21:11:10;;;;;;;1.80;1.40;;;;;;;14.15;100.00;100102.38;20870811;28;62511;-66
2021/08/31 21:22:22;;;;;;;1.30;1.20;;;;;;;14.18;100.00;100101.28;21070957;27;20601;-64
2021/08/31 21:32:26;;;;;;;1.60;1.50;;;;;;;14.22;100.00;100102.75;21050870;28;20302;-66
2021/08/31 21:42:31;;;;;;;1.23;1.23;;;;;;;14.17;100.00;100104.94;21065301;28;20229;-67
2021/08/31 22:02:38;;;;;;;1.50;1.40;;;;;;;14.37;100.00;100144.41;20906019;27;20633;-65
2021/08/31 22:12:41;;;;;;;1.60;1.50;;;;;;;14.40;100.00;100141.50;20894961;28;20568;-65
2021/08/31 22:22:45;;;;;;;1.20;1.20;;;;;;;14.45;100.00;100152.72;20889850;28;20337;-66
2021/08/31 22:32:48;;;;;;;1.10;1.00;;;;;;;14.48;100.00;100157.84;20952762;28;20232;-65
2021/08/31 22:42:51;;;;;;;1.00;1.00;;;;;;;14.53;100.00;100170.88;20870424;28;20734;-66
2021/08/31 22:52:54;;;;;;;1.33;1.23;;;;;;;14.53;100.00;100166.38;20959112;28;20317;-65
2021/08/31 23:02:58;;;;;;;1.10;1.00;;;;;;;14.49;100.00;100164.09;20910366;28;20321;-66
2021/08/31 23:13:00;;;;;;;0.87;0.87;;;;;;;14.50;100.00;100163.94;20906983;28;20219;-66
2021/08/31 23:23:04;;;;;;;1.00;1.00;;;;;;;14.50;100.00;100171.97;20885880;28;20235;-66
2021/08/31 23:33:07;;;;;;;0.70;0.70;;;;;;;14.50;100.00;100174.66;20885993;28;20231;-65
2021/08/31 23:43:11;;;;;;;1.20;1.10;;;;;;;14.45;100.00;100190.31;20827398;28;20232;-66
2021/08/31 23:53:14;;;;;;;0.90;0.90;;;;;;;14.37;100.00;100187.34;20885617;28;20239;-66
